createdAt,value
2023-04-27T00:02:20.011Z,5.50
2023-04-27T00:04:47.995Z,5.50
2023-04-27T00:07:15.165Z,5.40
2023-04-27T00:09:44.574Z,5.30
2023-04-27T00:12:11.509Z,5.30
2023-04-27T00:14:40.571Z,5.20
2023-04-27T00:17:07.558Z,5.10
2023-04-27T00:19:41.830Z,5.10
2023-04-27T00:22:09.159Z,5.00
2023-04-27T00:24:41.772Z,5.00
2023-04-27T00:27:13.522Z,5.00
2023-04-27T00:29:43.852Z,5.00
2023-04-27T00:32:11.349Z,5.10
2023-04-27T00:34:38.691Z,5.00
2023-04-27T00:37:07.947Z,5.00
2023-04-27T00:39:37.052Z,5.00
2023-04-27T00:42:11.470Z,5.00
2023-04-27T00:44:39.845Z,5.00
2023-04-27T00:47:07.195Z,5.00
2023-04-27T00:49:34.168Z,5.00
2023-04-27T00:52:01.097Z,5.00
2023-04-27T00:54:30.142Z,5.00
2023-04-27T00:56:58.097Z,5.00
2023-04-27T00:59:27.487Z,5.00
2023-04-27T01:01:55.230Z,4.90
2023-04-27T01:04:24.670Z,4.90
2023-04-27T01:06:53.934Z,4.90
2023-04-27T01:09:21.308Z,5.00
2023-04-27T01:11:50.144Z,5.00
2023-04-27T01:14:19.312Z,5.00
2023-04-27T01:16:46.501Z,4.90
2023-04-27T01:19:13.900Z,4.90
2023-04-27T01:21:41.043Z,4.90
2023-04-27T01:24:08.579Z,4.90
2023-04-27T01:26:37.744Z,4.90
2023-04-27T01:29:07.661Z,4.90
2023-04-27T01:31:36.851Z,5.00
2023-04-27T01:34:03.867Z,5.00
2023-04-27T01:36:32.456Z,5.00
2023-04-27T01:38:59.389Z,5.10
2023-04-27T01:41:28.812Z,5.10
2023-04-27T01:43:55.757Z,5.10
2023-04-27T01:46:22.694Z,5.20
2023-04-27T01:48:55.268Z,5.30
2023-04-27T01:51:24.698Z,5.40
2023-04-27T01:53:51.607Z,5.50
2023-04-27T01:56:18.528Z,5.50
2023-04-27T01:58:46.229Z,5.50
2023-04-27T02:01:13.718Z,5.50
2023-04-27T02:03:42.972Z,5.50
2023-04-27T02:06:14.756Z,5.50
2023-04-27T02:08:46.132Z,5.50
2023-04-27T02:11:13.079Z,5.50
2023-04-27T02:13:42.221Z,5.60
2023-04-27T02:16:11.440Z,5.60
2023-04-27T02:18:42.867Z,5.60
2023-04-27T02:21:12.553Z,5.60
2023-04-27T02:23:41.612Z,5.60
2023-04-27T02:26:08.584Z,5.60
2023-04-27T02:28:38.433Z,5.60
2023-04-27T02:31:06.213Z,5.60
2023-04-27T02:33:35.385Z,5.60
2023-04-27T02:36:02.355Z,5.50
2023-04-27T02:38:34.495Z,5.50
2023-04-27T02:41:01.479Z,5.50
2023-04-27T02:43:30.662Z,5.50
2023-04-27T02:45:59.808Z,5.50
2023-04-27T02:48:31.107Z,5.60
2023-04-27T02:50:58.052Z,5.50
2023-04-27T02:53:25.030Z,5.50
2023-04-27T02:55:52.028Z,5.50
2023-04-27T02:58:21.421Z,5.50
2023-04-27T03:00:55.788Z,5.50
2023-04-27T03:03:25.278Z,5.50
2023-04-27T03:05:52.360Z,5.50
2023-04-27T03:08:19.299Z,5.40
2023-04-27T03:10:46.277Z,5.40
2023-04-27T03:13:14.518Z,5.40
2023-04-27T03:15:43.856Z,5.40
2023-04-27T03:18:13.276Z,5.40
2023-04-27T03:20:41.426Z,5.40
2023-04-27T03:23:10.641Z,5.40
2023-04-27T03:25:37.566Z,5.40
2023-04-27T03:28:07.686Z,5.40
2023-04-27T03:30:34.616Z,5.40
2023-04-27T03:33:01.677Z,5.40
2023-04-27T03:35:29.852Z,5.30
2023-04-27T03:37:56.795Z,5.30
2023-04-27T03:40:26.204Z,5.30
2023-04-27T03:42:56.040Z,5.30
2023-04-27T03:45:26.546Z,5.30
2023-04-27T03:47:55.777Z,5.30
2023-04-27T03:50:28.911Z,5.30
2023-04-27T03:52:57.000Z,5.20
2023-04-27T03:55:26.311Z,5.20
2023-04-27T03:57:55.671Z,5.10
2023-04-27T04:00:27.237Z,5.10
2023-04-27T04:02:57.087Z,5.20
2023-04-27T04:05:26.343Z,5.20
2023-04-27T04:07:53.251Z,5.20
2023-04-27T04:10:21.247Z,5.20
2023-04-27T04:12:51.386Z,5.20
2023-04-27T04:15:20.789Z,5.30
2023-04-27T04:17:49.463Z,5.30
2023-04-27T04:20:16.952Z,5.30
2023-04-27T04:22:45.984Z,5.20
2023-04-27T04:25:13.196Z,5.20
2023-04-27T04:27:44.748Z,5.20
2023-04-27T04:30:12.744Z,5.20
2023-04-27T04:32:40.387Z,5.10
2023-04-27T04:35:07.956Z,5.10
2023-04-27T04:37:41.141Z,5.10
2023-04-27T04:40:09.348Z,5.10
2023-04-27T04:42:40.468Z,5.10
2023-04-27T04:45:09.181Z,5.20
2023-04-27T04:47:36.766Z,5.20
2023-04-27T04:50:04.153Z,5.30
2023-04-27T04:52:31.550Z,5.30
2023-04-27T04:54:58.784Z,5.30
2023-04-27T04:57:25.894Z,5.30
2023-04-27T04:59:55.424Z,5.40
2023-04-27T05:02:27.975Z,5.50
2023-04-27T05:04:57.067Z,5.50
2023-04-27T05:07:25.055Z,5.50
2023-04-27T05:09:52.460Z,5.60
2023-04-27T05:12:21.642Z,5.70
2023-04-27T05:14:51.562Z,5.80
2023-04-27T05:17:21.529Z,5.90
2023-04-27T05:19:51.168Z,6.00
2023-04-27T05:22:18.188Z,6.10
2023-04-27T05:24:45.137Z,6.20
2023-04-27T05:27:17.200Z,6.20
2023-04-27T05:29:44.401Z,6.30
2023-04-27T05:32:11.403Z,6.30
2023-04-27T05:34:38.388Z,6.40
2023-04-27T05:37:05.361Z,6.40
2023-04-27T05:39:32.497Z,6.50
2023-04-27T05:41:59.462Z,6.50
2023-04-27T05:44:28.571Z,6.60
2023-04-27T05:46:58.042Z,6.60
2023-04-27T05:49:24.983Z,6.60
2023-04-27T05:51:52.090Z,6.70
2023-04-27T05:54:18.984Z,6.80
2023-04-27T05:56:51.208Z,7.00
2023-04-27T05:59:18.232Z,7.20
2023-04-27T06:01:50.017Z,7.40
2023-04-27T06:04:17.101Z,7.70
2023-04-27T06:06:46.824Z,8.20
2023-04-27T06:09:14.868Z,8.60
2023-04-27T06:11:44.876Z,9.00
2023-04-27T06:14:11.835Z,9.30
2023-04-27T06:16:41.378Z,9.40
2023-04-27T06:19:08.354Z,9.50
2023-04-27T06:21:35.610Z,9.40
2023-04-27T06:24:02.598Z,9.20
2023-04-27T06:26:31.716Z,9.00
2023-04-27T06:29:01.117Z,8.80
2023-04-27T06:31:28.163Z,8.60
2023-04-27T06:33:55.152Z,8.60
2023-04-27T06:36:25.021Z,8.50
2023-04-27T06:38:56.446Z,8.50
2023-04-27T06:41:24.074Z,8.50
2023-04-27T06:43:54.275Z,8.40
2023-04-27T06:46:23.550Z,8.40
2023-04-27T06:48:51.697Z,8.40
2023-04-27T06:51:18.785Z,8.50
2023-04-27T06:53:45.710Z,8.50
2023-04-27T06:56:12.833Z,8.60
2023-04-27T06:58:41.927Z,8.60
2023-04-27T07:01:08.924Z,8.60
2023-04-27T07:03:40.864Z,8.60
2023-04-27T07:06:07.955Z,8.60
2023-04-27T07:08:35.021Z,8.60
2023-04-27T07:11:01.995Z,8.60
2023-04-27T07:13:31.933Z,8.60
2023-04-27T07:16:01.909Z,8.60
2023-04-27T07:18:28.909Z,8.60
2023-04-27T07:20:58.012Z,8.60
2023-04-27T07:23:27.492Z,8.60
2023-04-27T07:25:57.616Z,8.60
2023-04-27T07:28:24.594Z,8.60
2023-04-27T07:30:53.766Z,8.60
2023-04-27T07:33:20.686Z,8.70
2023-04-27T07:35:48.195Z,8.90
2023-04-27T07:38:15.172Z,9.00
2023-04-27T07:40:46.213Z,9.20
2023-04-27T07:43:13.342Z,9.20
2023-04-27T07:45:41.652Z,9.40
2023-04-27T07:48:09.908Z,9.40
2023-04-27T07:50:39.395Z,9.50
2023-04-27T07:53:06.315Z,9.50
2023-04-27T07:55:33.249Z,9.50
2023-04-27T07:58:02.713Z,9.50
2023-04-27T08:00:29.661Z,9.60
2023-04-27T08:02:57.055Z,9.60
2023-04-27T08:05:24.809Z,9.70
2023-04-27T08:07:54.395Z,9.90
2023-04-27T08:10:24.137Z,10.00
2023-04-27T08:12:51.588Z,10.20
2023-04-27T08:15:18.587Z,10.40
2023-04-27T08:17:48.450Z,10.50
2023-04-27T08:20:15.443Z,10.60
2023-04-27T08:22:42.934Z,10.60
2023-04-27T08:25:09.995Z,10.60
2023-04-27T08:27:38.098Z,10.70
2023-04-27T08:30:05.754Z,10.70
2023-04-27T08:32:32.802Z,10.80
2023-04-27T08:34:59.806Z,10.80
2023-04-27T08:37:29.733Z,10.90
2023-04-27T08:39:59.814Z,11.00
2023-04-27T08:42:31.988Z,11.00
2023-04-27T08:44:58.916Z,11.00
2023-04-27T08:47:41.851Z,11.00
2023-04-27T08:50:11.769Z,11.00
2023-04-27T08:52:38.795Z,11.10
2023-04-27T08:55:07.520Z,11.30
2023-04-27T08:57:34.467Z,11.40
2023-04-27T09:00:01.584Z,11.50
2023-04-27T09:02:29.892Z,11.50
2023-04-27T09:04:57.279Z,11.50
2023-04-27T09:07:25.715Z,11.70
2023-04-27T09:10:03.128Z,11.70
2023-04-27T09:12:30.033Z,11.80
2023-04-27T09:15:06.753Z,11.90
2023-04-27T09:17:33.967Z,12.10
2023-04-27T09:20:10.896Z,12.10
2023-04-27T09:22:44.693Z,12.10
2023-04-27T09:25:22.538Z,12.20
2023-04-27T09:27:49.473Z,12.20
2023-04-27T09:30:16.843Z,12.30
2023-04-27T09:32:54.384Z,12.50
2023-04-27T09:35:29.257Z,12.50
2023-04-27T09:37:56.489Z,12.60
2023-04-27T09:40:28.074Z,12.80
2023-04-27T09:42:58.817Z,13.00
2023-04-27T09:45:26.073Z,13.10
2023-04-27T09:47:53.313Z,13.30
2023-04-27T09:50:25.017Z,13.30
2023-04-27T09:52:54.464Z,13.30
2023-04-27T09:55:55.167Z,13.30
2023-04-27T09:58:30.935Z,13.30
2023-04-27T10:01:01.274Z,13.30
2023-04-27T10:03:45.845Z,13.30
2023-04-27T10:06:57.929Z,13.40
2023-04-27T10:09:25.358Z,13.50
2023-04-27T10:11:57.885Z,13.70
2023-04-27T10:14:25.010Z,13.80
2023-04-27T10:16:55.722Z,13.80
2023-04-27T10:19:23.765Z,13.90
2023-04-27T10:22:03.815Z,14.00
2023-04-27T10:24:44.212Z,14.00
2023-04-27T10:27:12.360Z,14.10
2023-04-27T10:29:43.449Z,14.00
2023-04-27T10:32:21.731Z,13.90
2023-04-27T10:34:51.777Z,14.00
2023-04-27T10:37:24.739Z,14.00
2023-04-27T10:39:52.900Z,14.10
2023-04-27T10:42:30.497Z,14.20
2023-04-27T10:45:00.233Z,14.30
2023-04-27T10:47:39.531Z,14.20
2023-04-27T10:50:11.360Z,14.00
2023-04-27T10:52:49.962Z,14.10
2023-04-27T10:55:20.318Z,14.00
2023-04-27T10:57:49.218Z,14.10
2023-04-27T11:00:46.632Z,14.20
2023-04-27T11:03:24.306Z,14.30
2023-04-27T11:06:04.371Z,14.50
2023-04-27T11:08:36.875Z,14.50
2023-04-27T11:11:06.109Z,14.50
2023-04-27T11:13:33.700Z,14.60
2023-04-27T11:16:04.949Z,14.60
2023-04-27T11:18:36.435Z,14.60
2023-04-27T11:21:12.680Z,14.40
2023-04-27T11:23:39.931Z,14.30
2023-04-27T11:26:14.819Z,14.20
2023-04-27T11:29:15.588Z,14.10
2023-04-27T11:31:51.961Z,14.10
2023-04-27T11:34:23.081Z,14.10
2023-04-27T11:37:10.845Z,14.10
2023-04-27T11:39:45.972Z,14.10
2023-04-27T11:42:19.731Z,14.20
2023-04-27T11:44:58.614Z,14.30
2023-04-27T11:47:27.665Z,14.40
2023-04-27T11:50:01.914Z,14.40
2023-04-27T11:52:36.102Z,14.50
2023-04-27T11:55:06.162Z,14.40
2023-04-27T11:57:33.788Z,14.30
2023-04-27T12:00:01.670Z,14.20
2023-04-27T12:02:31.725Z,14.20
2023-04-27T12:04:59.517Z,14.20
2023-04-27T12:07:27.123Z,14.00
2023-04-27T12:09:54.477Z,13.90
2023-04-27T12:12:23.854Z,13.90
2023-04-27T12:14:51.888Z,13.90
2023-04-27T12:17:18.899Z,13.90
2023-04-27T12:19:45.919Z,13.90
2023-04-27T12:22:15.516Z,14.10
2023-04-27T12:24:44.560Z,14.20
2023-04-27T12:27:12.927Z,14.40
2023-04-27T12:29:42.126Z,14.40
2023-04-27T12:32:09.142Z,14.30
2023-04-27T12:34:36.568Z,14.30
2023-04-27T12:37:03.481Z,14.30
2023-04-27T12:39:30.436Z,14.20
2023-04-27T12:41:58.360Z,14.20
2023-04-27T12:44:25.562Z,14.30
2023-04-27T12:46:52.549Z,14.50
2023-04-27T12:49:19.548Z,14.80
2023-04-27T12:51:47.996Z,14.90
2023-04-27T12:54:17.418Z,14.90
2023-04-27T12:56:44.483Z,14.80
2023-04-27T12:59:11.607Z,14.60
2023-04-27T13:01:38.947Z,14.50
2023-04-27T13:04:10.449Z,14.30
2023-04-27T13:06:39.886Z,14.30
2023-04-27T13:09:07.144Z,14.50
2023-04-27T13:11:34.080Z,14.50
2023-04-27T13:14:02.128Z,14.40
2023-04-27T13:16:29.250Z,14.50
2023-04-27T13:18:56.314Z,14.50
2023-04-27T13:21:25.466Z,14.50
2023-04-27T13:23:54.829Z,14.40
2023-04-27T13:26:22.512Z,14.40
2023-04-27T13:28:54.811Z,14.20
2023-04-27T13:31:21.736Z,14.10
2023-04-27T13:33:51.023Z,14.00
2023-04-27T13:36:17.970Z,14.00
2023-04-27T13:38:44.927Z,14.00
2023-04-27T13:41:14.134Z,13.90
2023-04-27T13:43:43.790Z,13.90
2023-04-27T13:46:13.825Z,13.70
2023-04-27T13:48:42.987Z,13.70
2023-04-27T13:51:10.285Z,13.60
2023-04-27T13:53:39.721Z,13.60
2023-04-27T13:56:08.955Z,13.60
2023-04-27T13:58:38.545Z,13.60
2023-04-27T14:01:05.610Z,13.50
2023-04-27T14:03:35.422Z,13.40
2023-04-27T14:06:02.570Z,13.30
2023-04-27T14:08:29.513Z,13.30
2023-04-27T14:10:58.874Z,13.30
2023-04-27T14:13:25.869Z,13.20
2023-04-27T14:15:59.823Z,13.10
2023-04-27T14:18:32.642Z,13.00
2023-04-27T14:21:02.417Z,12.90
2023-04-27T14:23:31.841Z,12.90
2023-04-27T14:25:58.828Z,12.90
2023-04-27T14:28:26.017Z,12.80
2023-04-27T14:30:52.990Z,12.80
2023-04-27T14:33:19.971Z,12.80
2023-04-27T14:35:46.924Z,12.80
2023-04-27T14:38:16.404Z,12.90
2023-04-27T14:40:44.580Z,12.80
2023-04-27T14:43:11.687Z,12.90
2023-04-27T14:45:50.316Z,12.90
2023-04-27T14:48:18.625Z,13.00
2023-04-27T14:50:45.758Z,13.00
2023-04-27T14:53:12.780Z,13.00
2023-04-27T14:55:41.180Z,13.10
2023-04-27T14:58:11.522Z,13.10
2023-04-27T15:00:39.509Z,13.10
2023-04-27T15:03:06.674Z,13.10
2023-04-27T15:05:36.120Z,13.00
2023-04-27T15:08:07.675Z,13.00
2023-04-27T15:10:34.664Z,12.90
2023-04-27T15:13:04.619Z,12.80
2023-04-27T15:15:31.605Z,12.80
2023-04-27T15:17:58.979Z,12.70
2023-04-27T15:20:26.067Z,12.50
2023-04-27T15:22:53.044Z,12.40
2023-04-27T15:25:20.368Z,12.20
2023-04-27T15:27:49.757Z,12.00
2023-04-27T15:30:16.875Z,11.70
2023-04-27T15:32:50.009Z,11.50
2023-04-27T15:35:19.471Z,11.50
2023-04-27T15:37:49.449Z,11.40
2023-04-27T15:40:16.645Z,11.40
2023-04-27T15:42:43.675Z,11.30
2023-04-27T15:45:12.958Z,11.30
2023-04-27T15:47:42.184Z,11.10
2023-04-27T15:50:09.521Z,11.00
2023-04-27T15:52:38.865Z,10.90
2023-04-27T15:55:08.670Z,10.80
2023-04-27T15:57:37.922Z,10.80
2023-04-27T16:00:10.486Z,10.80
2023-04-27T16:02:40.561Z,10.80
2023-04-27T16:05:10.046Z,10.80
2023-04-27T16:07:37.375Z,10.80
2023-04-27T16:10:04.812Z,10.70
2023-04-27T16:12:31.893Z,10.60
2023-04-27T16:15:01.050Z,10.40
2023-04-27T16:17:29.022Z,10.20
2023-04-27T16:20:00.404Z,10.10
2023-04-27T16:22:29.935Z,10.10
2023-04-27T16:24:57.042Z,10.10
2023-04-27T16:27:23.978Z,10.00
2023-04-27T16:29:53.137Z,9.80
2023-04-27T16:32:20.525Z,9.70
2023-04-27T16:34:47.662Z,9.70
2023-04-27T16:37:14.635Z,9.60
2023-04-27T16:39:41.626Z,9.50
2023-04-27T16:42:09.722Z,9.50
2023-04-27T16:44:37.940Z,9.50
2023-04-27T16:47:04.875Z,9.50
2023-04-27T16:49:31.790Z,9.40
2023-04-27T16:52:01.326Z,9.20
2023-04-27T16:54:28.406Z,9.20
2023-04-27T16:56:55.507Z,9.20
2023-04-27T16:59:22.721Z,9.20
2023-04-27T17:01:54.358Z,9.20
2023-04-27T17:04:21.497Z,9.10
2023-04-27T17:06:48.867Z,9.20
2023-04-27T17:09:18.149Z,9.10
2023-04-27T17:11:45.084Z,9.10
2023-04-27T17:14:11.980Z,9.10
2023-04-27T17:16:41.304Z,9.00
2023-04-27T17:19:08.237Z,9.00
2023-04-27T17:21:37.379Z,9.00
2023-04-27T17:24:04.592Z,9.00
2023-04-27T17:26:34.045Z,9.00
2023-04-27T17:29:03.214Z,9.00
2023-04-27T17:31:32.324Z,9.00
2023-04-27T17:33:59.427Z,9.00
2023-04-27T17:36:28.596Z,9.00
2023-04-27T17:38:57.741Z,9.20
2023-04-27T17:41:24.727Z,9.20
2023-04-27T17:43:51.717Z,9.10
2023-04-27T17:46:20.852Z,9.10
2023-04-27T17:48:47.808Z,9.10
2023-04-27T17:51:15.750Z,9.10
2023-04-27T17:53:42.688Z,9.00
2023-04-27T17:56:14.234Z,9.10
2023-04-27T17:58:41.241Z,9.10
2023-04-27T18:01:11.763Z,9.10
2023-04-27T18:03:38.844Z,9.10
2023-04-27T18:06:06.174Z,9.20
2023-04-27T18:08:33.105Z,9.20
2023-04-27T18:11:03.353Z,9.20
2023-04-27T18:13:31.929Z,9.20
2023-04-27T18:15:59.351Z,9.20
2023-04-27T18:18:26.933Z,9.20
2023-04-27T18:20:53.944Z,9.20
2023-04-27T18:23:21.215Z,9.20
2023-04-27T18:25:50.460Z,9.20
2023-04-27T18:28:20.689Z,9.20
2023-04-27T18:30:47.606Z,9.20
2023-04-27T18:33:17.880Z,9.20
2023-04-27T18:35:44.865Z,9.20
2023-04-27T18:38:16.579Z,9.20
2023-04-27T18:40:43.570Z,9.20
2023-04-27T18:43:10.640Z,9.20
2023-04-27T18:45:37.635Z,9.20
2023-04-27T18:48:04.705Z,9.20
2023-04-27T18:50:31.727Z,9.10
2023-04-27T18:53:00.992Z,9.20
2023-04-27T18:55:30.381Z,9.20
2023-04-27T18:57:57.278Z,9.20
2023-04-27T19:00:24.353Z,9.20
2023-04-27T19:02:52.307Z,9.20
2023-04-27T19:05:21.829Z,9.20
2023-04-27T19:07:48.880Z,9.20
2023-04-27T19:10:15.874Z,9.10
2023-04-27T19:12:45.132Z,9.20
2023-04-27T19:15:14.685Z,9.20
2023-04-27T19:17:44.123Z,9.20
2023-04-27T19:20:11.358Z,9.20
2023-04-27T19:22:40.812Z,9.10
2023-04-27T19:25:08.416Z,9.10
2023-04-27T19:27:35.364Z,9.10
2023-04-27T19:30:04.184Z,9.00
2023-04-27T19:32:31.383Z,9.00
2023-04-27T19:34:58.748Z,9.00
2023-04-27T19:37:26.870Z,9.00
2023-04-27T19:39:53.828Z,9.00
2023-04-27T19:42:24.865Z,9.10
2023-04-27T19:44:51.807Z,9.10
2023-04-27T19:47:18.825Z,9.00
2023-04-27T19:49:45.770Z,9.00
2023-04-27T19:52:12.754Z,9.00
2023-04-27T19:54:39.775Z,9.00
2023-04-27T19:57:06.735Z,9.00
2023-04-27T19:59:33.667Z,9.00
2023-04-27T20:02:00.753Z,9.00
2023-04-27T20:04:27.821Z,9.00
2023-04-27T20:06:57.173Z,9.00
2023-04-27T20:09:24.207Z,9.00
2023-04-27T20:11:51.132Z,9.00
2023-04-27T20:14:18.260Z,9.00
2023-04-27T20:16:45.440Z,9.00
2023-04-27T20:19:12.551Z,9.00
2023-04-27T20:21:44.382Z,9.00
2023-04-27T20:24:11.679Z,9.00
2023-04-27T20:26:41.165Z,9.00
2023-04-27T20:29:08.406Z,9.00
2023-04-27T20:31:37.910Z,9.00
2023-04-27T20:34:04.912Z,9.00
2023-04-27T20:36:33.934Z,9.10
2023-04-27T20:39:01.019Z,9.20
2023-04-27T20:41:28.239Z,9.20
2023-04-27T20:43:55.478Z,9.20
2023-04-27T20:46:22.438Z,9.20
2023-04-27T20:48:51.783Z,9.20
2023-04-27T20:51:19.179Z,9.30
2023-04-27T20:53:48.387Z,9.30
2023-04-27T20:56:15.319Z,9.40
2023-04-27T20:58:44.738Z,9.40
2023-04-27T21:01:13.819Z,9.40
2023-04-27T21:03:41.591Z,9.40
2023-04-27T21:06:08.751Z,9.40
2023-04-27T21:08:35.773Z,9.50
2023-04-27T21:11:07.307Z,9.50
2023-04-27T21:13:34.214Z,9.50
2023-04-27T21:16:02.000Z,9.50
2023-04-27T21:18:31.368Z,9.50
2023-04-27T21:20:58.548Z,9.50
2023-04-27T21:23:25.573Z,9.60
2023-04-27T21:25:55.073Z,9.60
2023-04-27T21:28:22.244Z,9.60
2023-04-27T21:30:51.955Z,9.70
2023-04-27T21:33:18.913Z,9.80
2023-04-27T21:35:46.056Z,9.80
2023-04-27T21:38:15.530Z,9.80
2023-04-27T21:40:44.907Z,9.90
2023-04-27T21:43:13.961Z,9.90
2023-04-27T21:45:41.377Z,9.90
2023-04-27T21:48:08.544Z,9.90
2023-04-27T21:50:37.729Z,10.00
2023-04-27T21:53:04.650Z,10.00
2023-04-27T21:55:34.059Z,10.00
2023-04-27T21:58:01.038Z,10.00
2023-04-27T22:00:30.466Z,10.00
2023-04-27T22:02:58.078Z,10.00
2023-04-27T22:05:29.327Z,10.10
2023-04-27T22:07:58.699Z,10.10
2023-04-27T22:10:27.825Z,10.10
2023-04-27T22:12:54.848Z,10.10
2023-04-27T22:15:24.747Z,10.10
2023-04-27T22:17:56.683Z,10.10
2023-04-27T22:20:24.851Z,10.10
2023-04-27T22:22:51.773Z,10.10
2023-04-27T22:25:18.920Z,10.10
2023-04-27T22:27:45.993Z,10.10
2023-04-27T22:30:15.990Z,10.20
2023-04-27T22:32:45.526Z,10.10
2023-04-27T22:35:24.747Z,10.10
2023-04-27T22:37:56.347Z,10.10
2023-04-27T22:40:23.575Z,10.10
2023-04-27T22:42:52.730Z,10.10
2023-04-27T22:45:19.672Z,10.10
2023-04-27T22:47:49.764Z,10.10
2023-04-27T22:50:19.080Z,10.10
2023-04-27T22:52:48.700Z,10.10
2023-04-27T22:55:16.137Z,10.10
2023-04-27T22:57:43.315Z,10.10
2023-04-27T23:00:11.624Z,10.10
2023-04-27T23:02:41.803Z,10.10
2023-04-27T23:05:09.383Z,10.10
2023-04-27T23:07:38.513Z,10.20
2023-04-27T23:10:05.988Z,10.20
2023-04-27T23:12:33.235Z,10.20
2023-04-27T23:15:02.627Z,10.20
2023-04-27T23:17:32.444Z,10.20
2023-04-27T23:20:11.059Z,10.20
2023-04-27T23:22:43.772Z,10.20
2023-04-27T23:25:11.380Z,10.20
2023-04-27T23:27:42.766Z,10.20
2023-04-27T23:30:10.096Z,10.20
2023-04-27T23:32:37.279Z,10.30
2023-04-27T23:35:06.935Z,10.30
2023-04-27T23:37:34.568Z,10.30
2023-04-27T23:40:01.713Z,10.30
2023-04-27T23:42:31.152Z,10.30
2023-04-27T23:44:58.453Z,10.40
2023-04-27T23:47:25.609Z,10.40
2023-04-27T23:49:52.560Z,10.40
2023-04-27T23:52:19.441Z,10.40
2023-04-27T23:54:46.378Z,10.50
2023-04-27T23:57:14.741Z,10.40
2023-04-27T23:59:41.843Z,10.50
